Time;durP1;ratioP1;P1;durP2;ratioP2;P2;SDS_P1;SDS_P2;PMS_P1;PMS_P2;Temp;Humidity;BMP_temperature;BMP_pressure;BME280_temperature;BME280_humidity;BME280_pressure;Samples;Min_cycle;Max_cycle;Signal;HPM_P1;HPM_P2
2021/08/07 00:02:07;;;;;;;8.03;2.63;;;17.00;89.90;;;;;;5042854;28;20184;-73
2021/08/07 00:04:33;;;;;;;6.90;2.70;;;17.00;90.00;;;;;;5052262;28;20180;-72
2021/08/07 00:06:59;;;;;;;4.37;2.47;;;17.00;90.10;;;;;;5041987;28;20192;-73
2021/08/07 00:09:24;;;;;;;3.80;2.60;;;17.00;90.10;;;;;;5048539;28;20211;-73
2021/08/07 00:11:50;;;;;;;7.00;3.23;;;17.00;90.10;;;;;;5040271;28;20193;-73
2021/08/07 00:14:16;;;;;;;5.70;2.70;;;16.90;90.30;;;;;;5046706;28;20323;-74
2021/08/07 00:16:42;;;;;;;5.40;2.90;;;16.80;90.60;;;;;;5042526;28;20302;-73
2021/08/07 00:19:07;;;;;;;5.27;2.70;;;16.70;91.10;;;;;;5051464;28;20213;-75
2021/08/07 00:21:33;;;;;;;4.20;2.97;;;16.60;91.40;;;;;;5044766;28;20193;-73
2021/08/07 00:23:59;;;;;;;5.30;2.90;;;16.60;91.70;;;;;;5054769;28;20204;-72
2021/08/07 00:26:25;;;;;;;4.67;2.83;;;16.60;91.60;;;;;;5049098;28;20248;-73
2021/08/07 00:28:50;;;;;;;5.20;2.90;;;16.60;91.60;;;;;;5044398;28;20249;-73
2021/08/07 00:31:16;;;;;;;6.40;2.77;;;16.60;91.50;;;;;;5044565;28;20185;-73
2021/08/07 00:33:42;;;;;;;4.07;2.40;;;16.60;91.70;;;;;;5050929;28;20185;-74
2021/08/07 00:36:07;;;;;;;7.00;2.93;;;16.60;91.80;;;;;;5042328;28;20644;-73
2021/08/07 00:38:33;;;;;;;3.50;2.53;;;16.60;91.90;;;;;;5047412;28;20207;-74
2021/08/07 00:40:59;;;;;;;9.90;3.47;;;16.60;92.00;;;;;;5043885;28;20196;-73
2021/08/07 00:43:25;;;;;;;5.30;2.70;;;16.70;92.10;;;;;;5050160;28;20275;-75
2021/08/07 00:45:50;;;;;;;10.10;3.10;;;16.70;91.80;;;;;;5043056;28;20193;-74
2021/08/07 00:48:16;;;;;;;4.80;3.00;;;16.80;91.40;;;;;;5047801;28;20184;-74
2021/08/07 00:50:47;;;;;;;6.10;2.50;;;16.90;91.30;;;;;;5039529;28;20219;-74
2021/08/07 00:53:13;;;;;;;4.50;2.40;;;17.00;91.00;;;;;;5049122;28;20220;-74
2021/08/07 00:55:41;;;;;;;7.00;3.17;;;17.00;90.90;;;;;;5050151;28;20507;-74
2021/08/07 00:58:07;;;;;;;7.70;3.20;;;17.00;90.70;;;;;;5046267;28;20190;-74
2021/08/07 01:00:33;;;;;;;6.50;2.60;;;17.00;90.80;;;;;;5040733;28;20490;-73
2021/08/07 01:03:19;;;;;;;7.87;2.93;;;17.00;90.70;;;;;;5045380;28;20445;-73
2021/08/07 01:05:56;;;;;;;4.33;2.30;;;17.00;90.80;;;;;;5040980;28;20921;-73
2021/08/07 01:08:23;;;;;;;3.40;2.60;;;17.00;91.00;;;;;;5050232;28;20433;-72
2021/08/07 01:11:22;;;;;;;3.97;2.43;;;17.10;91.00;;;;;;5045702;28;20871;-74
2021/08/07 01:13:51;;;;;;;4.33;3.13;;;17.10;91.00;;;;;;5044622;28;20940;-73
2021/08/07 01:16:24;;;;;;;4.23;2.43;;;17.10;90.80;;;;;;5043067;28;20494;-74
2021/08/07 01:18:52;;;;;;;8.53;3.50;;;17.10;90.60;;;;;;5044609;28;20447;-73
2021/08/07 01:21:24;;;;;;;5.40;2.90;;;17.20;90.40;;;;;;5039886;28;20438;-74
2021/08/07 01:23:51;;;;;;;8.13;2.90;;;17.20;90.20;;;;;;5044569;28;20832;-74
2021/08/07 01:26:49;;;;;;;5.23;2.60;;;17.10;90.30;;;;;;5045660;28;20432;-74
2021/08/07 01:29:16;;;;;;;5.70;2.73;;;17.10;90.50;;;;;;5048239;28;20502;-74
2021/08/07 01:31:46;;;;;;;4.43;2.60;;;17.10;90.70;;;;;;5050130;28;20959;-75
2021/08/07 01:34:13;;;;;;;3.80;2.60;;;17.10;90.60;;;;;;5040545;28;20509;-75
2021/08/07 01:36:39;;;;;;;3.73;2.90;;;17.10;90.60;;;;;;5042533;28;21000;-74
2021/08/07 01:39:06;;;;;;;4.77;3.27;;;17.10;90.60;;;;;;5045265;28;20443;-73
2021/08/07 01:41:31;;;;;;;4.70;3.00;;;17.10;90.40;;;;;;5050306;28;20767;-74
2021/08/07 01:43:57;;;;;;;4.10;2.83;;;17.20;90.20;;;;;;5046370;28;20526;-74
2021/08/07 01:46:27;;;;;;;5.30;3.57;;;17.20;90.10;;;;;;5042053;28;20247;-74
2021/08/07 01:49:06;;;;;;;6.50;3.73;;;17.20;90.10;;;;;;5048151;28;20270;-74
2021/08/07 01:51:42;;;;;;;7.60;3.83;;;17.10;90.40;;;;;;5041854;28;20927;-75
2021/08/07 01:54:10;;;;;;;6.87;3.43;;;17.10;90.80;;;;;;5040963;28;20543;-75
2021/08/07 01:56:42;;;;;;;12.17;4.03;;;17.00;90.80;;;;;;5048427;28;20480;-76
2021/08/07 01:59:18;;;;;;;4.83;3.13;;;16.90;91.30;;;;;;5050075;28;20976;-74
2021/08/07 02:01:47;;;;;;;6.63;3.10;;;16.80;91.50;;;;;;5046984;28;20863;-75
2021/08/07 02:04:15;;;;;;;7.53;3.47;;;16.90;91.30;;;;;;5046607;28;20423;-73
2021/08/07 02:06:43;;;;;;;6.60;2.93;;;16.80;91.50;;;;;;5041579;28;20853;-74
2021/08/07 02:09:11;;;;;;;5.47;3.00;;;16.80;91.50;;;;;;5043438;28;20539;-73
2021/08/07 02:11:40;;;;;;;6.23;3.83;;;16.80;91.40;;;;;;5044320;28;20423;-74
2021/08/07 02:14:07;;;;;;;10.40;3.60;;;16.90;91.40;;;;;;5046137;28;20485;-73
2021/08/07 02:16:34;;;;;;;6.00;3.17;;;16.90;91.40;;;;;;5041329;28;20455;-74
2021/08/07 02:19:03;;;;;;;10.00;4.10;;;16.90;91.40;;;;;;5045166;28;20508;-74
2021/08/07 02:21:29;;;;;;;13.70;3.37;;;16.80;91.70;;;;;;5038615;28;20535;-75
2021/08/07 02:23:54;;;;;;;8.60;3.60;;;16.70;91.90;;;;;;5043377;28;20855;-74
2021/08/07 02:26:23;;;;;;;6.33;3.60;;;16.80;92.10;;;;;;5044311;28;20429;-73
2021/08/07 02:28:49;;;;;;;6.03;3.30;;;16.80;91.90;;;;;;5042086;28;20236;-74
2021/08/07 02:31:15;;;;;;;5.37;3.43;;;16.70;92.10;;;;;;5041652;28;20452;-72
2021/08/07 02:33:42;;;;;;;4.60;3.20;;;16.70;92.40;;;;;;5040710;28;20557;-73
2021/08/07 02:36:11;;;;;;;6.63;3.80;;;16.70;92.40;;;;;;5039446;28;20467;-75
2021/08/07 02:38:37;;;;;;;5.90;3.63;;;16.70;92.50;;;;;;5045520;28;20518;-73
2021/08/07 02:41:03;;;;;;;7.77;3.43;;;16.70;92.40;;;;;;5049086;28;20434;-73
2021/08/07 02:43:30;;;;;;;6.43;3.53;;;16.70;92.40;;;;;;5041573;28;20425;-73
2021/08/07 02:45:56;;;;;;;7.20;3.47;;;16.60;92.60;;;;;;5038002;28;20431;-73
2021/08/07 02:48:25;;;;;;;6.27;3.17;;;16.70;92.50;;;;;;5048181;28;20536;-73
2021/08/07 02:50:51;;;;;;;5.20;3.47;;;16.60;92.40;;;;;;5044017;28;20937;-74
2021/08/07 02:53:18;;;;;;;6.57;2.90;;;16.70;92.50;;;;;;5049282;28;20516;-74
2021/08/07 02:55:44;;;;;;;5.80;3.87;;;16.70;92.50;;;;;;5041623;28;20460;-74
2021/08/07 02:58:10;;;;;;;4.43;2.83;;;16.70;92.60;;;;;;5044042;28;20420;-73
2021/08/07 03:00:38;;;;;;;4.80;3.10;;;16.70;92.70;;;;;;5041934;28;20433;-74
2021/08/07 03:03:04;;;;;;;6.60;3.40;;;16.70;92.70;;;;;;5042987;28;20418;-72
2021/08/07 03:05:30;;;;;;;4.57;3.37;;;16.70;92.50;;;;;;5050294;28;20442;-74
2021/08/07 03:07:56;;;;;;;4.33;3.47;;;16.80;92.40;;;;;;5050307;28;20935;-73
2021/08/07 03:10:22;;;;;;;5.47;3.03;;;16.80;92.30;;;;;;5047555;28;20259;-75
2021/08/07 03:12:49;;;;;;;5.13;3.37;;;16.70;92.30;;;;;;5048242;28;20185;-73
2021/08/07 03:15:16;;;;;;;6.63;3.07;;;16.70;92.20;;;;;;5040652;28;20496;-74
2021/08/07 03:17:42;;;;;;;4.37;3.10;;;16.70;92.20;;;;;;5047936;28;20486;-73
2021/08/07 03:20:09;;;;;;;7.23;3.70;;;16.60;92.40;;;;;;5049623;28;20998;-73
2021/08/07 03:22:35;;;;;;;5.40;3.50;;;16.60;92.70;;;;;;5051525;28;20181;-76
2021/08/07 03:25:01;;;;;;;6.93;4.10;;;16.60;92.90;;;;;;5050971;28;20420;-73
2021/08/07 03:27:27;;;;;;;4.67;3.13;;;16.50;92.80;;;;;;5046191;28;20484;-73
2021/08/07 03:29:53;;;;;;;7.33;3.60;;;16.50;92.90;;;;;;5041280;28;20448;-74
2021/08/07 03:32:18;;;;;;;5.27;3.20;;;16.50;93.00;;;;;;5047684;28;20181;-73
2021/08/07 03:34:44;;;;;;;6.77;3.97;;;16.40;93.00;;;;;;5043339;28;20204;-73
2021/08/07 03:37:10;;;;;;;12.60;3.70;;;16.40;92.80;;;;;;5052420;28;20212;-74
2021/08/07 03:39:37;;;;;;;5.60;3.30;;;16.30;93.20;;;;;;5042376;28;20485;-73
2021/08/07 03:42:03;;;;;;;7.10;3.43;;;16.30;93.20;;;;;;5042457;28;20425;-72
2021/08/07 03:44:28;;;;;;;4.00;3.20;;;16.30;93.30;;;;;;5040065;28;20415;-73
2021/08/07 03:46:54;;;;;;;6.40;3.73;;;16.30;93.50;;;;;;5044531;28;20459;-74
2021/08/07 03:49:20;;;;;;;4.93;3.10;;;16.20;93.40;;;;;;5038356;28;20320;-75
2021/08/07 03:51:46;;;;;;;7.33;3.27;;;16.20;93.80;;;;;;5044332;28;20216;-74
2021/08/07 03:54:11;;;;;;;6.27;3.40;;;16.20;93.90;;;;;;5036820;28;20182;-73
2021/08/07 03:56:37;;;;;;;7.00;3.10;;;16.20;93.70;;;;;;5043887;28;20210;-72
2021/08/07 03:59:03;;;;;;;4.10;2.80;;;16.20;93.60;;;;;;5039313;28;20216;-74
2021/08/07 04:01:29;;;;;;;4.30;2.93;;;16.20;93.40;;;;;;5044477;28;20188;-75
2021/08/07 04:03:54;;;;;;;5.83;3.00;;;16.20;93.40;;;;;;5044885;28;20482;-73
2021/08/07 04:06:20;;;;;;;5.30;2.87;;;16.20;93.50;;;;;;5037777;28;20186;-74
2021/08/07 04:08:46;;;;;;;5.10;2.53;;;16.10;93.60;;;;;;5040657;28;20231;-73
2021/08/07 04:11:12;;;;;;;6.70;3.13;;;16.10;93.70;;;;;;5044630;28;20215;-73
2021/08/07 04:13:37;;;;;;;5.70;2.80;;;16.00;93.70;;;;;;5042141;28;20197;-74
2021/08/07 04:16:04;;;;;;;4.10;3.00;;;16.00;93.80;;;;;;5042619;28;20252;-72
2021/08/07 04:18:30;;;;;;;6.03;2.73;;;16.00;93.90;;;;;;5039613;28;20570;-74
2021/08/07 04:20:55;;;;;;;5.13;3.10;;;16.00;93.90;;;;;;5042606;28;20422;-72
2021/08/07 04:23:21;;;;;;;5.87;3.07;;;16.00;93.90;;;;;;5042340;28;20197;-73
2021/08/07 04:25:47;;;;;;;3.83;2.83;;;16.10;93.80;;;;;;5042556;28;20268;-75
2021/08/07 04:28:13;;;;;;;5.13;3.03;;;16.10;93.70;;;;;;5035068;28;20437;-73
2021/08/07 04:30:39;;;;;;;5.57;3.00;;;16.10;93.50;;;;;;5043769;28;20195;-74
2021/08/07 04:33:04;;;;;;;10.20;3.60;;;16.10;93.60;;;;;;5048050;28;20238;-73
2021/08/07 04:35:30;;;;;;;4.37;3.37;;;16.10;93.50;;;;;;5040688;28;20204;-74
2021/08/07 04:37:58;;;;;;;5.70;3.20;;;16.20;93.50;;;;;;5042997;28;20185;-74
2021/08/07 04:40:25;;;;;;;6.57;3.17;;;16.20;93.60;;;;;;5050092;28;20214;-74
2021/08/07 04:42:51;;;;;;;5.70;3.00;;;16.20;93.50;;;;;;5051348;28;20421;-74
2021/08/07 04:45:18;;;;;;;7.40;3.40;;;16.30;93.10;;;;;;5050968;28;20430;-73
2021/08/07 04:47:54;;;;;;;5.77;2.83;;;16.30;93.00;;;;;;5051244;28;20429;-74
2021/08/07 04:50:21;;;;;;;6.00;3.10;;;16.30;92.90;;;;;;5043605;28;20634;-73
2021/08/07 04:52:47;;;;;;;5.93;2.97;;;16.30;92.70;;;;;;5042591;28;20431;-74
2021/08/07 04:55:12;;;;;;;8.50;3.10;;;16.40;92.40;;;;;;5042084;28;20465;-73
2021/08/07 04:57:38;;;;;;;7.10;3.10;;;16.40;92.00;;;;;;5046446;28;20575;-73
2021/08/07 05:00:05;;;;;;;8.83;3.60;;;16.50;92.00;;;;;;5040340;28;20209;-74
2021/08/07 05:02:30;;;;;;;6.20;3.23;;;16.50;91.80;;;;;;5045388;28;20180;-75
2021/08/07 05:04:56;;;;;;;7.97;2.93;;;16.60;91.40;;;;;;5048072;28;20474;-73
2021/08/07 05:07:22;;;;;;;4.90;3.20;;;16.60;91.00;;;;;;5043154;28;20188;-74
2021/08/07 05:09:47;;;;;;;8.40;3.17;;;16.70;90.70;;;;;;5047610;28;20226;-73
2021/08/07 05:12:13;;;;;;;5.73;2.67;;;16.80;90.50;;;;;;5040937;28;20219;-73
2021/08/07 05:14:39;;;;;;;6.90;3.50;;;16.80;90.30;;;;;;5045020;28;20189;-73
2021/08/07 05:17:04;;;;;;;4.80;3.00;;;16.80;90.20;;;;;;5043398;28;20252;-74
2021/08/07 05:19:30;;;;;;;5.87;2.53;;;16.90;90.20;;;;;;5043531;28;20238;-73
2021/08/07 05:21:56;;;;;;;5.83;2.63;;;17.00;89.50;;;;;;5043580;28;20197;-74
2021/08/07 05:24:22;;;;;;;7.53;2.90;;;17.00;88.70;;;;;;5041951;28;20237;-73
2021/08/07 05:26:47;;;;;;;4.43;2.60;;;17.00;88.90;;;;;;5038918;28;20187;-73
2021/08/07 05:29:13;;;;;;;4.73;2.80;;;17.10;88.70;;;;;;5039580;28;20677;-73
2021/08/07 05:31:39;;;;;;;4.40;2.80;;;17.10;88.40;;;;;;5043603;28;20430;-74
2021/08/07 05:34:04;;;;;;;7.20;3.23;;;17.10;88.60;;;;;;5036876;28;20188;-75
2021/08/07 05:36:30;;;;;;;4.70;2.50;;;17.20;88.30;;;;;;5047107;28;20321;-74
2021/08/07 05:38:56;;;;;;;6.53;2.57;;;17.20;88.10;;;;;;5043842;28;20201;-74
2021/08/07 05:41:21;;;;;;;7.50;2.60;;;17.30;88.60;;;;;;5044817;28;20266;-75
2021/08/07 05:43:47;;;;;;;4.40;2.77;;;17.40;88.40;;;;;;5048717;28;20241;-73
2021/08/07 05:46:13;;;;;;;3.73;2.90;;;17.50;88.30;;;;;;5041351;28;20189;-74
2021/08/07 05:48:38;;;;;;;4.00;2.73;;;17.60;88.10;;;;;;5046935;28;20269;-77
2021/08/07 05:51:04;;;;;;;5.03;3.13;;;17.70;88.00;;;;;;5039412;28;20223;-74
2021/08/07 05:53:30;;;;;;;7.60;3.23;;;17.70;87.70;;;;;;5043921;28;20320;-76
2021/08/07 05:55:56;;;;;;;5.60;2.80;;;17.80;87.30;;;;;;5044739;28;20257;-77
2021/08/07 05:58:22;;;;;;;5.87;2.60;;;17.90;86.30;;;;;;5043656;28;20208;-75
2021/08/07 06:00:48;;;;;;;3.17;2.17;;;17.90;85.90;;;;;;5041498;28;20185;-77
2021/08/07 06:03:14;;;;;;;3.60;3.17;;;17.90;85.30;;;;;;5042109;28;20427;-75
2021/08/07 06:05:40;;;;;;;4.40;2.57;;;17.90;85.50;;;;;;5042889;28;20492;-74
2021/08/07 06:08:05;;;;;;;4.43;2.80;;;17.90;85.90;;;;;;5041491;28;20255;-75
2021/08/07 06:10:31;;;;;;;6.40;3.90;;;17.80;85.90;;;;;;5044821;28;20187;-76
2021/08/07 06:12:57;;;;;;;6.17;2.90;;;17.90;85.60;;;;;;5048788;28;20722;-75
2021/08/07 06:15:23;;;;;;;7.33;4.27;;;17.90;85.90;;;;;;5048441;28;20470;-74
2021/08/07 06:17:49;;;;;;;6.30;3.40;;;18.10;85.20;;;;;;5049582;28;20226;-76
2021/08/07 06:20:15;;;;;;;5.77;3.90;;;18.10;85.00;;;;;;5058429;28;20802;-74
2021/08/07 06:22:41;;;;;;;8.73;3.63;;;18.30;85.20;;;;;;5056488;28;20246;-72
2021/08/07 06:25:08;;;;;;;3.13;2.60;;;18.50;84.30;;;;;;5059694;28;20847;-73
2021/08/07 06:27:34;;;;;;;5.90;3.00;;;18.70;83.00;;;;;;5045679;28;20189;-74
2021/08/07 06:30:00;;;;;;;4.00;2.37;;;18.90;82.70;;;;;;5039022;28;20441;-76
2021/08/07 06:32:26;;;;;;;2.90;2.37;;;19.10;82.70;;;;;;5042939;28;20513;-76
2021/08/07 06:34:52;;;;;;;8.90;3.80;;;19.30;82.20;;;;;;5040526;28;20440;-77
2021/08/07 06:37:18;;;;;;;5.83;3.80;;;19.40;81.70;;;;;;5046661;28;20508;-78
2021/08/07 06:39:44;;;;;;;4.77;2.73;;;19.50;81.10;;;;;;5042350;28;20209;-72
2021/08/07 06:42:10;;;;;;;3.90;2.77;;;19.60;80.50;;;;;;5042234;28;20204;-74
2021/08/07 06:44:36;;;;;;;3.73;2.07;;;19.70;79.50;;;;;;5045908;28;20472;-73
2021/08/07 06:47:02;;;;;;;5.83;2.60;;;19.80;77.10;;;;;;5041931;28;20471;-75
2021/08/07 06:49:28;;;;;;;4.07;2.17;;;19.80;76.40;;;;;;5047466;28;20212;-76
2021/08/07 06:51:53;;;;;;;6.70;2.83;;;19.90;75.70;;;;;;5046695;28;20251;-75
2021/08/07 06:54:19;;;;;;;5.30;2.50;;;19.90;75.50;;;;;;5046089;28;20549;-78
2021/08/07 06:56:48;;;;;;;3.60;2.10;;;19.90;75.10;;;;;;5045585;28;20215;-72
2021/08/07 06:59:14;;;;;;;3.37;2.00;;;19.90;74.90;;;;;;5038758;28;20213;-76
2021/08/07 07:01:40;;;;;;;2.83;2.07;;;20.00;74.90;;;;;;5043319;28;20530;-76
2021/08/07 07:04:06;;;;;;;3.50;2.13;;;20.00;74.90;;;;;;5044038;28;20483;-76
2021/08/07 07:06:32;;;;;;;5.33;2.30;;;20.10;74.30;;;;;;5048046;28;20414;-76
2021/08/07 07:08:58;;;;;;;4.43;2.60;;;20.20;74.30;;;;;;5044709;28;21034;-75
2021/08/07 07:11:23;;;;;;;3.97;2.10;;;20.20;73.60;;;;;;5040718;28;20184;-75
2021/08/07 07:13:49;;;;;;;4.33;2.17;;;20.20;72.90;;;;;;5040041;28;20204;-76
2021/08/07 07:16:15;;;;;;;2.57;1.80;;;20.20;72.90;;;;;;5039019;28;20227;-77
2021/08/07 07:18:41;;;;;;;3.00;1.73;;;20.30;71.60;;;;;;5040150;28;20216;-74
2021/08/07 07:21:08;;;;;;;4.97;2.07;;;20.50;71.30;;;;;;5042064;28;20496;-75
2021/08/07 07:23:33;;;;;;;3.00;1.90;;;20.70;70.80;;;;;;5047154;28;20192;-75
2021/08/07 07:25:59;;;;;;;2.17;1.67;;;20.90;69.80;;;;;;5048900;28;20431;-76
2021/08/07 07:28:25;;;;;;;5.63;2.20;;;21.10;69.10;;;;;;5044467;28;20207;-72
2021/08/07 07:30:50;;;;;;;5.13;2.10;;;21.30;68.90;;;;;;5046491;28;20185;-73
2021/08/07 07:33:16;;;;;;;5.80;2.40;;;21.40;68.00;;;;;;5039463;28;20286;-72
2021/08/07 07:35:42;;;;;;;2.53;1.70;;;21.30;68.90;;;;;;5046851;28;20593;-73
2021/08/07 07:38:08;;;;;;;5.30;2.00;;;21.40;69.50;;;;;;5046100;28;20188;-71
2021/08/07 07:40:34;;;;;;;4.80;1.70;;;21.40;68.60;;;;;;5050557;28;20419;-72
2021/08/07 07:43:00;;;;;;;3.90;1.80;;;21.40;68.60;;;;;;5048748;28;20683;-73
2021/08/07 07:45:26;;;;;;;2.60;2.10;;;21.60;69.50;;;;;;5046442;28;21058;-73
2021/08/07 07:47:52;;;;;;;4.30;1.70;;;21.80;68.60;;;;;;5045666;28;20422;-75
2021/08/07 07:50:18;;;;;;;3.73;2.20;;;22.00;67.70;;;;;;5044596;28;20205;-73
2021/08/07 07:52:44;;;;;;;2.93;1.70;;;22.10;67.60;;;;;;5043415;28;20248;-74
2021/08/07 07:55:11;;;;;;;3.13;1.97;;;22.20;68.30;;;;;;5044631;28;20421;-74
2021/08/07 07:57:37;;;;;;;3.17;1.87;;;22.20;67.90;;;;;;5051804;28;20419;-73
2021/08/07 08:00:04;;;;;;;2.90;1.87;;;22.00;67.20;;;;;;5044413;28;20493;-74
2021/08/07 08:02:30;;;;;;;2.50;1.67;;;21.80;68.30;;;;;;5044400;28;20854;-73
2021/08/07 08:04:56;;;;;;;3.00;1.90;;;21.70;69.20;;;;;;5049428;28;20511;-73
2021/08/07 08:07:21;;;;;;;2.90;1.97;;;21.80;69.10;;;;;;5050772;28;20651;-74
2021/08/07 08:09:47;;;;;;;2.77;1.90;;;22.00;68.50;;;;;;5051709;28;20251;-73
2021/08/07 08:12:13;;;;;;;3.50;1.70;;;22.20;68.30;;;;;;5044216;28;20191;-74
2021/08/07 08:14:39;;;;;;;2.90;2.00;;;22.30;66.40;;;;;;5051342;28;20193;-74
2021/08/07 08:17:04;;;;;;;3.43;2.00;;;22.50;66.60;;;;;;5050427;28;20273;-74
2021/08/07 08:19:30;;;;;;;3.30;1.90;;;22.60;66.00;;;;;;5051183;28;20199;-74
2021/08/07 08:21:56;;;;;;;2.83;1.50;;;22.80;65.40;;;;;;5051568;28;20274;-73
2021/08/07 08:24:22;;;;;;;8.47;2.40;;;23.10;64.80;;;;;;5051135;28;20266;-74
2021/08/07 08:26:48;;;;;;;5.20;1.77;;;23.20;64.40;;;;;;5051439;28;20198;-74
2021/08/07 08:29:14;;;;;;;3.10;1.70;;;23.20;63.50;;;;;;5044703;28;20863;-74
2021/08/07 08:31:39;;;;;;;2.17;1.60;;;23.30;63.50;;;;;;5051652;28;20284;-73
2021/08/07 08:34:05;;;;;;;3.20;1.50;;;23.20;63.90;;;;;;5051196;28;20928;-74
2021/08/07 08:36:31;;;;;;;3.80;1.77;;;23.40;63.40;;;;;;5045500;28;20216;-74
2021/08/07 08:38:57;;;;;;;4.37;2.40;;;23.60;63.50;;;;;;5047175;28;20311;-74
2021/08/07 08:41:23;;;;;;;3.70;2.20;;;23.80;63.40;;;;;;5045764;28;20417;-75
2021/08/07 08:43:51;;;;;;;4.80;2.30;;;23.90;63.70;;;;;;5050917;28;20215;-74
2021/08/07 08:46:19;;;;;;;3.23;2.03;;;24.00;63.90;;;;;;5050616;28;20437;-74
2021/08/07 08:48:45;;;;;;;3.00;2.10;;;24.10;62.30;;;;;;5048927;28;20448;-73
2021/08/07 08:51:12;;;;;;;3.73;2.23;;;24.10;62.90;;;;;;5051220;28;20430;-75
2021/08/07 08:53:44;;;;;;;4.73;2.27;;;24.20;62.90;;;;;;5050750;28;20760;-78
2021/08/07 08:56:10;;;;;;;3.37;2.23;;;24.20;63.80;;;;;;5050480;28;20469;-74
2021/08/07 08:58:36;;;;;;;2.20;1.60;;;24.20;62.90;;;;;;5045358;28;20451;-74
2021/08/07 09:01:08;;;;;;;2.40;2.00;;;24.20;62.60;;;;;;5047273;28;20454;-74
2021/08/07 09:03:34;;;;;;;4.00;2.17;;;24.00;62.60;;;;;;5049494;28;20420;-74
2021/08/07 09:06:00;;;;;;;5.63;2.00;;;24.00;63.40;;;;;;5050480;28;20435;-73
2021/08/07 09:08:26;;;;;;;4.43;1.80;;;24.00;63.70;;;;;;5049425;28;20613;-73
2021/08/07 09:11:19;;;;;;;7.30;2.47;;;23.90;62.30;;;;;;5050591;28;20517;-74
2021/08/07 09:13:46;;;;;;;6.27;2.40;;;23.80;62.90;;;;;;5043040;28;20275;-74
2021/08/07 09:16:12;;;;;;;4.23;2.40;;;23.70;63.70;;;;;;5048817;28;20460;-73
2021/08/07 09:18:38;;;;;;;4.90;2.47;;;23.70;64.20;;;;;;5050225;28;20442;-74
2021/08/07 09:21:15;;;;;;;4.20;1.97;;;23.70;63.20;;;;;;5050970;28;20431;-74
2021/08/07 09:23:42;;;;;;;2.67;1.83;;;23.80;63.10;;;;;;5051376;28;20637;-73
2021/08/07 09:26:23;;;;;;;2.67;1.77;;;23.80;62.80;;;;;;5068189;28;20426;-73
2021/08/07 09:28:55;;;;;;;4.57;2.37;;;24.00;62.80;;;;;;5060256;28;20537;-74
2021/08/07 09:31:22;;;;;;;4.00;2.50;;;24.10;63.10;;;;;;5049729;28;20437;-73
2021/08/07 09:34:19;;;;;;;4.80;2.67;;;24.20;62.30;;;;;;5050053;28;20506;-74
2021/08/07 09:36:49;;;;;;;3.80;2.40;;;24.30;62.30;;;;;;5043897;28;20471;-73
2021/08/07 09:39:16;;;;;;;2.53;1.77;;;24.30;63.80;;;;;;5045766;28;20878;-74
2021/08/07 09:41:58;;;;;;;7.13;2.00;;;24.20;63.10;;;;;;5049611;28;20521;-74
2021/08/07 09:44:24;;;;;;;4.63;1.97;;;24.00;60.60;;;;;;5049200;28;20938;-74
2021/08/07 09:46:50;;;;;;;5.00;2.00;;;23.60;62.30;;;;;;5049856;28;20449;-74
2021/08/07 09:49:31;;;;;;;2.90;1.87;;;23.30;63.10;;;;;;5047800;28;20723;-73
2021/08/07 09:51:57;;;;;;;5.30;1.80;;;23.10;63.50;;;;;;5048046;28;20550;-73
2021/08/07 09:54:23;;;;;;;7.60;2.50;;;22.90;65.10;;;;;;5042539;28;20435;-73
2021/08/07 09:56:53;;;;;;;6.03;2.40;;;22.80;63.80;;;;;;5049368;28;20214;-74
2021/08/07 09:59:21;;;;;;;5.57;2.13;;;22.60;63.70;;;;;;5049353;28;20216;-73
2021/08/07 10:01:48;;;;;;;3.40;2.30;;;22.50;65.70;;;;;;5049949;28;20859;-73
2021/08/07 10:04:15;;;;;;;3.27;2.13;;;22.30;67.20;;;;;;5049452;28;21134;-73
2021/08/07 10:06:43;;;;;;;3.83;2.27;;;22.00;68.80;;;;;;5049383;28;20460;-73
2021/08/07 10:09:09;;;;;;;3.47;2.00;;;21.80;70.50;;;;;;5049224;28;20464;-73
2021/08/07 10:11:35;;;;;;;4.50;1.97;;;21.50;72.30;;;;;;5045175;28;20473;-73
2021/08/07 10:14:02;;;;;;;4.60;2.30;;;21.30;74.50;;;;;;5049347;28;20423;-74
2021/08/07 10:16:29;;;;;;;3.87;2.17;;;21.00;77.00;;;;;;5048911;28;20839;-73
2021/08/07 10:18:55;;;;;;;5.37;2.40;;;20.70;77.00;;;;;;5048999;28;20458;-74
2021/08/07 10:21:21;;;;;;;9.60;2.70;;;20.50;79.60;;;;;;5049575;28;20951;-74
2021/08/07 10:23:50;;;;;;;4.80;2.70;;;20.10;82.70;;;;;;5049084;28;20427;-76
2021/08/07 10:26:20;;;;;;;5.50;2.63;;;19.90;84.60;;;;;;5049331;28;20438;-73
2021/08/07 10:28:48;;;;;;;5.47;2.87;;;19.70;87.00;;;;;;5042514;28;20829;-74
2021/08/07 10:31:15;;;;;;;5.60;3.10;;;19.50;90.10;;;;;;5049475;28;20453;-74
2021/08/07 10:33:46;;;;;;;5.00;3.10;;;19.40;90.20;;;;;;5049320;28;20922;-74
2021/08/07 10:36:13;;;;;;;12.70;3.63;;;19.10;91.20;;;;;;5048841;28;20517;-74
2021/08/07 10:38:40;;;;;;;4.53;2.77;;;19.00;91.70;;;;;;5043496;28;20458;-74
2021/08/07 10:41:07;;;;;;;5.53;2.63;;;18.80;92.20;;;;;;5046717;28;20437;-74
2021/08/07 10:43:37;;;;;;;6.67;2.97;;;18.80;92.60;;;;;;5048903;28;20834;-74
2021/08/07 10:46:08;;;;;;;5.73;3.50;;;18.90;93.60;;;;;;5045939;28;21213;-74
2021/08/07 10:48:42;;;;;;;5.07;3.47;;;18.90;94.60;;;;;;5049061;28;20451;-74
2021/08/07 10:51:24;;;;;;;9.23;3.20;;;19.00;95.30;;;;;;5049931;28;20431;-75
2021/08/07 10:53:58;;;;;;;4.30;2.90;;;19.00;95.60;;;;;;5046014;28;20464;-73
2021/08/07 10:56:27;;;;;;;6.20;3.37;;;19.10;95.40;;;;;;5051690;28;21062;-74
2021/08/07 10:58:54;;;;;;;5.50;3.23;;;19.20;95.50;;;;;;5049002;28;20513;-74
2021/08/07 11:01:19;;;;;;;9.90;5.43;;;19.20;94.70;;;;;;5053285;28;20518;-74
2021/08/07 11:04:02;;;;;;;4.33;3.50;;;19.20;95.00;;;;;;5052851;28;20840;-75
2021/08/07 11:06:49;;;;;;;5.83;3.07;;;19.20;93.70;;;;;;5052659;28;20184;-74
2021/08/07 11:09:31;;;;;;;5.83;3.63;;;19.10;92.20;;;;;;5052771;28;20496;-74
2021/08/07 11:12:06;;;;;;;5.50;3.13;;;19.00;92.40;;;;;;5048825;28;20411;-74
2021/08/07 11:14:34;;;;;;;7.33;3.60;;;19.00;92.40;;;;;;5052631;28;20414;-74
2021/08/07 11:17:05;;;;;;;6.93;3.40;;;18.90;92.80;;;;;;5051695;28;20473;-74
2021/08/07 11:19:50;;;;;;;4.90;3.00;;;19.00;92.80;;;;;;5052249;28;20446;-73
2021/08/07 11:22:37;;;;;;;7.20;3.10;;;19.00;93.40;;;;;;5050659;28;20937;-74
2021/08/07 11:25:10;;;;;;;4.50;3.40;;;18.90;92.80;;;;;;5039580;28;20420;-74
2021/08/07 11:27:45;;;;;;;8.80;3.67;;;18.90;93.30;;;;;;5042725;28;20921;-74
2021/08/07 11:30:19;;;;;;;6.53;3.47;;;18.80;93.20;;;;;;5048636;28;20964;-74
2021/08/07 11:33:06;;;;;;;7.70;3.47;;;18.70;93.40;;;;;;5043161;28;20426;-74
2021/08/07 11:35:35;;;;;;;10.63;3.57;;;18.60;93.40;;;;;;5045291;28;20534;-73
2021/08/07 11:38:49;;;;;;;5.93;3.67;;;18.50;93.80;;;;;;5044493;28;20561;-73
2021/08/07 11:41:04;;;;;;;6.40;3.50;;;18.40;94.30;;;;;;5050779;28;20473;-74
2021/08/07 11:43:40;;;;;;;8.00;4.00;;;18.40;94.90;;;;;;5043156;28;20525;-75
2021/08/07 11:46:07;;;;;;;6.73;3.80;;;18.40;95.30;;;;;;5048914;28;20461;-74
2021/08/07 11:48:45;;;;;;;6.80;4.27;;;18.50;95.60;;;;;;5052224;28;20439;-74
2021/08/07 11:51:26;;;;;;;5.10;3.67;;;18.60;95.40;;;;;;5052641;28;20450;-74
2021/08/07 11:53:52;;;;;;;6.80;3.40;;;18.60;95.00;;;;;;5052165;28;20501;-74
2021/08/07 11:56:19;;;;;;;4.87;3.20;;;18.60;95.30;;;;;;5051866;28;20991;-73
2021/08/07 11:58:52;;;;;;;8.57;4.17;;;18.70;95.20;;;;;;5052285;28;20436;-73
2021/08/07 12:01:19;;;;;;;4.20;3.40;;;18.70;94.90;;;;;;5051988;28;20426;-75
2021/08/07 12:03:50;;;;;;;6.83;3.50;;;18.80;94.70;;;;;;5045898;28;20431;-75
2021/08/07 12:06:19;;;;;;;5.03;3.23;;;18.70;94.20;;;;;;5050385;28;20949;-75
2021/08/07 12:08:45;;;;;;;5.57;3.37;;;18.70;93.30;;;;;;5044320;28;20539;-74
2021/08/07 12:11:16;;;;;;;5.53;3.17;;;18.70;93.60;;;;;;5046933;28;20973;-75
2021/08/07 12:13:44;;;;;;;5.63;3.13;;;18.50;92.80;;;;;;5043068;28;20432;-75
2021/08/07 12:16:12;;;;;;;5.97;3.47;;;18.50;93.20;;;;;;5050087;28;20457;-75
2021/08/07 12:18:53;;;;;;;5.30;3.37;;;18.50;93.40;;;;;;5057091;28;20489;-76
2021/08/07 12:21:19;;;;;;;5.83;3.07;;;18.50;93.60;;;;;;5049805;28;20422;-74
2021/08/07 12:23:46;;;;;;;5.13;3.00;;;18.50;93.30;;;;;;5049450;28;20422;-74
2021/08/07 12:26:13;;;;;;;4.37;3.00;;;18.40;93.40;;;;;;5052002;28;20205;-74
2021/08/07 12:28:39;;;;;;;5.00;2.80;;;18.40;93.60;;;;;;5045424;28;20787;-73
2021/08/07 12:31:05;;;;;;;4.50;3.13;;;18.40;93.30;;;;;;5050716;28;20589;-74
2021/08/07 12:33:37;;;;;;;4.73;2.70;;;18.40;93.00;;;;;;5051764;28;20666;-75
2021/08/07 12:36:15;;;;;;;3.23;2.67;;;18.50;93.50;;;;;;5050113;28;20274;-75
2021/08/07 12:38:48;;;;;;;6.00;2.80;;;18.30;93.90;;;;;;5045826;28;20443;-74
2021/08/07 12:41:20;;;;;;;4.83;2.70;;;18.40;93.70;;;;;;5049869;28;20533;-74
2021/08/07 12:43:47;;;;;;;3.57;2.77;;;18.40;93.10;;;;;;5050265;28;20427;-74
2021/08/07 12:46:16;;;;;;;3.93;2.80;;;18.40;93.60;;;;;;5051909;28;20422;-73
2021/08/07 12:48:52;;;;;;;4.10;2.50;;;18.40;93.50;;;;;;5051757;28;20973;-75
2021/08/07 12:51:27;;;;;;;5.13;3.00;;;18.40;93.60;;;;;;5043660;28;20427;-75